Time;durP1;ratioP1;P1;durP2;ratioP2;P2;SDS_P1;SDS_P2;PMS_P1;PMS_P2;Temp;Humidity;BMP_temperature;BMP_pressure;BME280_temperature;BME280_humidity;BME280_pressure;Samples;Min_cycle;Max_cycle;Signal;HPM_P1;HPM_P2
2022/10/07 00:03:09;;;;;;;2.37;1.43;;;;;;;;;;21066464;28;20224;-74
2022/10/07 00:13:11;;;;;;;1.13;0.80;;;;;;;;;;21031711;28;20212;-73
2022/10/07 00:23:13;;;;;;;1.80;1.10;;;;;;;;;;21081992;28;20239;-73
2022/10/07 00:33:15;;;;;;;1.30;0.73;;;;;;;;;;21080409;28;20220;-76
2022/10/07 00:43:25;;;;;;;2.70;1.17;;;13.40;99.90;;;;;;21046707;28;20297;-77
2022/10/07 00:53:28;;;;;;;1.03;0.70;;;;;;;;;;21045858;28;20200;-76
2022/10/07 01:03:30;;;;;;;1.07;0.63;;;;;;;;;;21060947;28;20212;-76
2022/10/07 01:13:44;;;;;;;1.20;0.73;;;13.20;99.90;;;;;;21060781;28;20239;-76
2022/10/07 01:23:50;;;;;;;0.73;0.57;;;;;;;;;;21057267;28;20303;-73
2022/10/07 01:33:53;;;;;;;1.50;0.90;;;13.10;99.90;;;;;;21076125;28;20208;-74
2022/10/07 01:43:59;;;;;;;1.23;0.70;;;;;;;;;;21041538;28;20280;-74
2022/10/07 01:54:30;;;;;;;1.07;0.60;;;12.80;99.90;;;;;;21075190;28;20197;-74
2022/10/07 02:04:56;;;;;;;0.90;0.60;;;12.90;99.90;;;;;;21056173;28;20216;-75
2022/10/07 02:15:08;;;;;;;1.23;0.53;;;12.60;99.90;;;;;;21040762;28;20628;-75
2022/10/07 02:25:12;;;;;;;2.67;0.67;;;12.70;99.90;;;;;;21026765;28;20682;-75
2022/10/07 02:35:33;;;;;;;0.83;0.67;;;12.50;99.90;;;;;;21035976;28;20296;-74
2022/10/07 02:45:42;;;;;;;0.30;0.30;;;;;;;;;;21035712;28;20254;-75
2022/10/07 02:55:47;;;;;;;1.63;0.60;;;12.30;99.90;;;;;;21036047;28;20213;-74
2022/10/07 03:05:50;;;;;;;0.97;0.60;;;;;;;;;;21050978;28;20273;-74
2022/10/07 03:15:52;;;;;;;1.00;0.40;;;;;;;;;;21033085;28;20263;-74
2022/10/07 03:25:59;;;;;;;1.00;0.40;;;;;;;;;;21068775;22;20333;-70
2022/10/07 03:36:05;;;;;;;1.30;0.40;;;12.00;99.90;;;;;;21059679;28;20216;-69
2022/10/07 03:46:07;;;;;;;2.20;0.53;;;;;;;;;;21048652;28;20246;-69
2022/10/07 03:56:13;;;;;;;0.53;0.40;;;;;;;;;;21022475;28;20221;-69
2022/10/07 04:06:17;;;;;;;2.70;0.80;;;12.10;99.90;;;;;;21003426;28;20269;-70
2022/10/07 04:16:21;;;;;;;1.00;0.50;;;;;;;;;;21020673;28;20879;-69
2022/10/07 04:26:24;;;;;;;2.00;0.50;;;;;;;;;;21050860;28;20232;-70
2022/10/07 04:36:26;;;;;;;1.07;0.57;;;;;;;;;;21010323;28;20619;-70
2022/10/07 04:46:38;;;;;;;1.13;0.50;;;;;;;;;;21040673;28;20599;-70
2022/10/07 04:56:48;;;;;;;2.63;0.70;;;;;;;;;;21023197;28;20270;-70
2022/10/07 05:06:51;;;;;;;1.47;0.70;;;;;;;;;;21044715;28;20236;-70
2022/10/07 05:16:53;;;;;;;2.63;1.13;;;;;;;;;;21005449;28;20746;-70
2022/10/07 05:26:57;;;;;;;4.73;2.87;;;;;;;;;;21009508;28;20212;-69
2022/10/07 05:37:00;;;;;;;1.50;0.93;;;;;;;;;;21020724;28;20232;-71
2022/10/07 05:47:02;;;;;;;1.93;0.67;;;;;;;;;;20959907;28;20217;-72
2022/10/07 05:57:04;;;;;;;1.97;1.10;;;;;;;;;;21036897;28;20230;-71
2022/10/07 06:07:08;;;;;;;2.47;1.00;;;;;;;;;;21064828;28;20687;-69
2022/10/07 06:17:10;;;;;;;4.23;1.43;;;;;;;;;;21065713;28;20208;-69
2022/10/07 06:27:14;;;;;;;2.90;1.23;;;;;;;;;;21021165;28;20217;-70
2022/10/07 06:37:19;;;;;;;4.40;0.97;;;;;;;;;;21012480;28;20213;-70
2022/10/07 06:47:22;;;;;;;4.20;2.23;;;;;;;;;;21041125;28;20231;-69
2022/10/07 06:57:25;;;;;;;2.20;1.00;;;;;;;;;;21020941;28;20225;-70
2022/10/07 07:07:28;;;;;;;4.67;1.13;;;;;;;;;;21021750;28;20280;-70
2022/10/07 07:17:30;;;;;;;4.60;1.37;;;;;;;;;;21054856;28;20279;-70
2022/10/07 07:27:33;;;;;;;1.97;0.80;;;;;;;;;;21037086;28;20225;-70
2022/10/07 07:37:36;;;;;;;2.63;1.13;;;;;;;;;;21007022;28;20213;-69
2022/10/07 07:47:38;;;;;;;3.67;1.40;;;;;;;;;;20969509;28;20217;-69
2022/10/07 07:57:41;;;;;;;2.50;0.77;;;;;;;;;;20961200;28;20251;-70
2022/10/07 08:07:45;;;;;;;1.83;0.90;;;;;;;;;;20982847;28;20579;-70
2022/10/07 08:17:48;;;;;;;4.23;1.63;;;;;;;;;;21015348;28;20293;-70
2022/10/07 08:27:52;;;;;;;3.47;1.10;;;;;;;;;;21013074;28;20285;-71
2022/10/07 08:37:55;;;;;;;1.80;0.80;;;;;;;;;;21000030;28;20265;-70
2022/10/07 08:47:59;;;;;;;2.37;1.10;;;;;;;;;;21028107;28;20293;-71
2022/10/07 08:58:20;;;;;;;3.67;1.43;;;;;;;;;;21046220;28;20277;-70
2022/10/07 09:08:28;;;;;;;1.60;0.87;;;;;;;;;;21042306;28;20220;-72
2022/10/07 09:18:40;;;;;;;3.90;1.10;;;13.40;99.90;;;;;;21009314;28;20243;-71
2022/10/07 09:28:42;;;;;;;2.00;0.73;;;;;;;;;;20991907;22;20233;-71
2022/10/07 09:38:45;;;;;;;4.77;0.90;;;;;;;;;;20925535;28;20586;-70
2022/10/07 09:48:51;;;;;;;2.27;1.27;;;;;;;;;;20935977;28;20297;-71
2022/10/07 09:59:33;;;;;;;1.70;0.80;;;13.90;99.90;;;;;;20995454;28;20698;-71
2022/10/07 10:09:36;;;;;;;2.93;0.90;;;;;;;;;;20909198;28;20277;-70
2022/10/07 10:19:38;;;;;;;3.00;1.30;;;;;;;;;;20991302;28;20302;-71
2022/10/07 10:29:43;;;;;;;2.27;0.80;;;14.60;99.90;;;;;;21015854;28;20294;-70
2022/10/07 10:40:05;;;;;;;3.90;1.10;;;;;;;;;;20942531;28;20220;-70
2022/10/07 10:51:00;;;;;;;2.60;0.70;;;15.00;99.90;;;;;;20984997;28;20212;-71
2022/10/07 11:01:10;;;;;;;3.53;1.07;;;;;;;;;;20927317;28;20228;-70
2022/10/07 11:11:21;;;;;;;3.47;1.53;;;15.20;99.90;;;;;;21009800;28;20207;-71
2022/10/07 11:21:37;;;;;;;2.87;1.10;;;15.60;99.90;;;;;;20984779;28;20228;-71
2022/10/07 11:31:45;;;;;;;6.13;1.13;;;15.90;99.90;;;;;;21044398;28;20301;-70
2022/10/07 11:41:47;;;;;;;1.87;1.13;;;;;;;;;;21052429;28;20228;-71
2022/10/07 11:51:56;;;;;;;3.20;0.93;;;;;;;;;;21034925;28;20273;-70
2022/10/07 12:01:59;;;;;;;3.37;1.20;;;;;;;;;;21034229;28;20285;-70
2022/10/07 12:12:00;;;;;;;2.50;1.03;;;;;;;;;;21047383;28;20208;-70
2022/10/07 12:22:23;;;;;;;4.33;1.10;;;;;;;;;;21051852;28;20236;-70
2022/10/07 12:32:44;;;;;;;2.37;1.10;;;;;;;;;;20986350;28;20700;-71
2022/10/07 12:43:00;;;;;;;2.87;1.00;;;;;;;;;;20986104;28;20286;-68
2022/10/07 12:53:03;;;;;;;5.17;1.00;;;;;;;;;;20993789;28;20603;-68
2022/10/07 13:03:08;;;;;;;3.33;1.10;;;;;;;;;;20907455;28;20244;-67
2022/10/07 13:13:28;;;;;;;2.07;1.00;;;17.20;99.90;;;;;;20894608;28;20769;-67
2022/10/07 13:23:31;;;;;;;3.50;1.07;;;;;;;;;;20876866;28;20295;-66
2022/10/07 13:33:32;;;;;;;3.13;1.10;;;;;;;;;;20476705;28;20274;-66
2022/10/07 13:43:37;;;;;;;4.60;1.50;;;;;;;;;;20859831;28;20798;-66
2022/10/07 13:53:40;;;;;;;3.77;1.33;;;;;;;;;;20912609;28;20702;-67
2022/10/07 14:04:02;;;;;;;2.23;0.80;;;;;;;;;;20927645;28;20591;-67
2022/10/07 14:14:04;;;;;;;1.73;0.87;;;;;;;;;;20955129;28;20250;-67
2022/10/07 14:24:10;;;;;;;1.60;0.90;;;;;;;;;;20952937;28;20283;-70
2022/10/07 14:44:32;;;;;;;2.03;0.80;;;;;;;;;;21003234;28;20254;-66
2022/10/07 14:54:34;;;;;;;40.70;12.77;;;;;;;;;;20945800;28;20275;-66
2022/10/07 15:04:36;;;;;;;2.20;1.03;;;;;;;;;;20941436;28;20251;-66
2022/10/07 15:14:38;;;;;;;2.20;0.93;;;;;;;;;;20935600;28;20632;-68
2022/10/07 15:24:40;;;;;;;4.67;1.20;;;;;;;;;;20985534;28;20217;-68
2022/10/07 15:34:44;;;;;;;2.10;0.90;;;;;;;;;;21063226;22;20223;-71
2022/10/07 15:44:50;;;;;;;3.13;1.13;;;;;;;;;;21100401;28;20223;-71
2022/10/07 15:54:51;;;;;;;2.67;0.87;;;;;;;;;;21097108;28;20211;-71
2022/10/07 16:04:53;;;;;;;1.80;1.03;;;;;;;;;;21100422;28;20280;-70
2022/10/07 16:14:56;;;;;;;4.13;1.10;;;;;;;;;;21099952;28;20220;-71
2022/10/07 16:24:57;;;;;;;3.40;1.30;;;;;;;;;;21082519;28;20227;-71
2022/10/07 16:35:00;;;;;;;3.87;1.17;;;;;;;;;;21090463;28;20235;-70
2022/10/07 16:45:03;;;;;;;2.00;1.17;;;;;;;;;;21096750;28;20595;-71
2022/10/07 16:55:05;;;;;;;4.80;2.40;;;16.40;99.90;;;;;;21105483;28;20220;-70
2022/10/07 17:05:09;;;;;;;8.93;2.00;;;;;;;;;;21126550;28;20224;-70
2022/10/07 17:15:11;;;;;;;3.90;1.37;;;;;;;;;;21092137;28;20208;-69
2022/10/07 17:25:14;;;;;;;3.87;2.00;;;;;;;;;;21089685;28;20277;-69
2022/10/07 17:35:28;;;;;;;3.13;1.50;;;16.10;99.90;;;;;;21089030;28;20227;-70
2022/10/07 17:45:34;;;;;;;2.73;1.60;;;16.00;99.90;;;;;;21090135;28;20223;-70
2022/10/07 17:55:36;;;;;;;4.33;2.30;;;;;;;;;;21078064;28;20215;-69
2022/10/07 18:05:38;;;;;;;3.23;1.87;;;;;;;;;;21110370;28;20353;-70
2022/10/07 18:15:42;;;;;;;3.77;1.60;;;;;;;;;;21107470;28;20220;-70
2022/10/07 18:25:44;;;;;;;4.30;1.50;;;;;;;;;;21090886;28;20232;-70
2022/10/07 18:35:46;;;;;;;3.47;1.70;;;;;;;;;;21120897;28;20281;-69
2022/10/07 18:45:56;;;;;;;1.83;1.30;;;;;;;;;;21106429;28;20289;-69
2022/10/07 18:56:02;;;;;;;3.93;1.50;;;;;;;;;;21104952;28;20253;-69
2022/10/07 19:06:08;;;;;;;3.43;1.40;;;;;;;;;;21104157;28;20219;-69
2022/10/07 19:16:12;;;;;;;2.23;1.30;;;;;;;;;;21102995;28;20200;-70
2022/10/07 19:26:15;;;;;;;3.80;1.40;;;15.40;99.90;;;;;;21100868;28;20272;-69
2022/10/07 19:36:18;;;;;;;2.50;1.27;;;15.50;99.90;;;;;;21118830;28;20285;-70
2022/10/07 19:46:22;;;;;;;2.43;1.10;;;;;;;;;;21100263;28;20239;-70
2022/10/07 19:56:29;;;;;;;2.83;1.37;;;15.50;99.90;;;;;;21097375;28;20215;-69
2022/10/07 20:06:31;;;;;;;1.90;1.23;;;15.20;99.90;;;;;;21097047;28;20212;-69
2022/10/07 20:16:33;;;;;;;3.40;1.40;;;;;;;;;;21092999;28;20265;-70
2022/10/07 20:26:37;;;;;;;11.97;6.57;;;15.30;99.90;;;;;;21089560;28;20211;-70
2022/10/07 20:36:42;;;;;;;5.90;3.20;;;;;;;;;;21107383;28;20265;-70
2022/10/07 20:46:51;;;;;;;6.97;2.73;;;;;;;;;;21129176;28;20231;-70
2022/10/07 20:56:56;;;;;;;6.50;2.40;;;;;;;;;;21111996;28;20224;-70
2022/10/07 21:06:58;;;;;;;2.90;1.73;;;13.30;99.90;;;;;;21093187;28;20564;-70
2022/10/07 21:17:02;;;;;;;3.13;1.63;;;;;;;;;;21126406;28;20228;-70
2022/10/07 21:27:05;;;;;;;2.80;1.43;;;15.10;99.90;;;;;;21108887;28;20223;-70
2022/10/07 21:37:07;;;;;;;4.63;1.60;;;;;;;;;;21119574;27;20272;-70
2022/10/07 21:47:09;;;;;;;3.83;1.47;;;;;;;;;;21206872;27;20215;-70
2022/10/07 21:57:12;;;;;;;1.73;1.27;;;;;;;;;;21187753;27;20204;-70
2022/10/07 22:17:35;;;;;;;1.90;1.43;;;;;;;;;;21154537;27;20768;-70
2022/10/07 22:27:37;;;;;;;3.60;1.50;;;;;;;;;;21125119;28;20228;-70
2022/10/07 22:37:39;;;;;;;2.20;1.47;;;;;;;;;;21085710;28;20220;-70
2022/10/07 22:47:41;;;;;;;2.47;1.50;;;;;;;;;;21102930;22;20224;-71
2022/10/07 22:57:43;;;;;;;2.33;1.53;;;14.90;99.90;;;;;;21070603;28;20694;-72
2022/10/07 23:07:44;;;;;;;2.40;1.20;;;;;;;;;;21068526;28;20216;-72
2022/10/07 23:17:46;;;;;;;2.30;1.30;;;;;;;;;;21068740;28;20246;-72
2022/10/07 23:27:48;;;;;;;3.37;1.93;;;;;;;;;;21047097;28;20224;-71
2022/10/07 23:37:49;;;;;;;2.07;1.30;;;;;;;;;;21067138;28;20204;-74
2022/10/07 23:47:51;;;;;;;3.03;1.60;;;;;;;;;;21065684;28;20647;-74
2022/10/07 23:57:53;;;;;;;2.93;1.30;;;;;;;;;;21065437;28;20220;-74
